Météo Nord-Pas-de-Calais   La météo au plus près de chez vous

Station météorologique

Observations météo à Dunkerque (59183)

59183001 11 m Dernier relevé à 17:48
21.5°C
Humidité 76 % Vent 25.6 km/h 1014.4 hPa

Journée consultée

Vendredi 4 Septembre 2026

Synthèse de la journée

Périodes de référence en UTC

Température maximale

21.9°C

à 12:48

06h 06h

Température minimale

20.3°C

à 04:00

18h 18h

Rafale maximale

63 km/h

à 08:48

00h 00h

Précipitations

0.2 mm

Cumul quotidien

06h 06h

Graphiques de la journée

Heure locale Réduire

Données détaillées

Relevés météo

Pas de 6 minutes Afficher les relevés infra-horaires
Relevés météo détaillés à Dunkerque pour le Vendredi 4 Septembre 2026
Heure Température °C Point de rosée °C Humidité % Vent moyen (raf.), km/h Précipitations mm Pression hPa Nébulosité Octas
17:48 21.5 °C 17.3 °C 77 % 21 km/h (35 km/h) 0 mm0 mm 1014.4 hPa
17:42 21.5 °C 17.1 °C 76 % 21 km/h (36 km/h) 0 mm0 mm 1014.6 hPa
17:36 21.5 °C 17.1 °C 76 % 22 km/h (37 km/h) 0 mm0 mm 1014.5 hPa
17:30 21.5 °C 17.1 °C 76 % 24 km/h (40 km/h) 0 mm0 mm 1014.4 hPa
17:24 21.5 °C 16.7 °C 74 % 23 km/h (40 km/h) 0 mm0 mm 1014.5 hPa
17:18 21.6 °C 17 °C 75 % 23 km/h (37 km/h) 0 mm0 mm 1014.4 hPa
17:12 21.6 °C 16.8 °C 74 % 23 km/h (39 km/h) 0 mm0 mm 1014.6 hPa
17:06 21.5 °C 16.7 °C 74 % 25 km/h (43 km/h) 0 mm0 mm 1014.4 hPa
17:00 21.6 °C 17.2 °C 76 % 26 km/h (43 km/h) 0 mm0 mm 1014.4 hPa
16:54 21.6 °C 17.4 °C 77 % 26 km/h (37 km/h) 0 mm0 mm 1014.5 hPa
16:48 21.6 °C 17.2 °C 76 % 26 km/h (37 km/h) 0 mm0 mm 1014.4 hPa
16:42 21.5 °C 17.1 °C 76 % 27 km/h (37 km/h) 0 mm0 mm 1014.4 hPa
16:36 21.5 °C 16.7 °C 74 % 27 km/h (37 km/h) 0 mm0 mm 1014.4 hPa
16:30 21.5 °C 16.9 °C 75 % 26 km/h (38 km/h) 0 mm0 mm 1014.5 hPa
16:24 21.4 °C 16.4 °C 73 % 26 km/h (38 km/h) 0 mm0 mm 1014.5 hPa
16:18 21.5 °C 16.7 °C 74 % 27 km/h (37 km/h) 0 mm0 mm 1014.4 hPa
16:12 21.6 °C 17 °C 75 % 30 km/h (41 km/h) 0 mm0 mm 1014.8 hPa
16:06 21.4 °C 17 °C 76 % 28 km/h (44 km/h) 0 mm0 mm 1014.8 hPa
16:00 21.4 °C 17.2 °C 77 % 28 km/h (41 km/h) 0 mm0 mm 1014.3 hPa
15:54 21.5 °C 17.3 °C 77 % 30 km/h (41 km/h) 0 mm0 mm 1014.4 hPa
15:48 21.4 °C 16.8 °C 75 % 27 km/h (39 km/h) 0 mm0 mm 1014.3 hPa
15:42 21.2 °C 16.8 °C 76 % 28 km/h (43 km/h) 0 mm0 mm 1014.3 hPa
15:36 21.4 °C 16.8 °C 75 % 28 km/h (42 km/h) 0 mm0 mm 1014.2 hPa
15:30 21.3 °C 16.9 °C 76 % 28 km/h (42 km/h) 0 mm0 mm 1014.2 hPa
15:24 21.5 °C 16.5 °C 73 % 29 km/h (42 km/h) 0 mm0 mm 1014 hPa
15:18 21.6 °C 16.5 °C 73 % 29 km/h (42 km/h) 0 mm0 mm 1013.8 hPa
15:12 21.5 °C 16.2 °C 72 % 26 km/h (40 km/h) 0 mm0 mm 1013.8 hPa
15:06 21.6 °C 16.8 °C 74 % 22 km/h (38 km/h) 0 mm0 mm 1013.8 hPa
15:00 21.5 °C 16.7 °C 74 % 19 km/h (28 km/h) 0 mm0 mm 1013.8 hPa
14:54 21.4 °C 16.1 °C 72 % 16 km/h (24 km/h) 0 mm0 mm 1013.8 hPa
14:48 21.5 °C 16.5 °C 73 % 18 km/h (35 km/h) 0 mm0 mm 1013.6 hPa
14:42 21.8 °C 16.5 °C 72 % 19 km/h (35 km/h) 0 mm0 mm 1013.4 hPa
14:36 21.9 °C 16.8 °C 73 % 18 km/h (33 km/h) 1013.4 hPa
14:30 21.6 °C 16.8 °C 74 % 16 km/h (30 km/h) 0 mm0 mm 1013.3 hPa
14:24 21.6 °C 16.5 °C 73 % 19 km/h (33 km/h) 0 mm0 mm 1013.4 hPa
14:18 21.5 °C 16.5 °C 73 % 23 km/h (39 km/h) 0 mm0 mm 1013.4 hPa
14:12 21.1 °C 16.7 °C 76 % 28 km/h (42 km/h) 0 mm0 mm 1013.6 hPa
14:06 21.4 °C 17.4 °C 78 % 27 km/h (42 km/h) 0 mm0 mm 1013.7 hPa
14:00 21.2 °C 17.2 °C 78 % 23 km/h (39 km/h) 0 mm0.2 mm 1013.4 hPa
13:54 21.2 °C 17.4 °C 79 % 22 km/h (36 km/h) 0 mm0 mm 1013.5 hPa
13:48 21.4 °C 18.4 °C 83 % 22 km/h (37 km/h) 0 mm0 mm 1013.4 hPa
13:42 21.1 °C 18.3 °C 84 % 23 km/h (41 km/h) 0 mm0 mm 1013.3 hPa
13:36 21 °C 18.8 °C 87 % 26 km/h (47 km/h) 0 mm0 mm 1013.3 hPa
13:30 20.7 °C 19 °C 90 % 28 km/h (49 km/h) 0.2 mm0 mm 1013.2 hPa
13:24 21.1 °C 18.8 °C 87 % 24 km/h (42 km/h) 0 mm0 mm 1013.2 hPa
13:18 21.3 °C 18.3 °C 83 % 27 km/h (50 km/h) 0 mm0 mm 1013 hPa
13:12 21.6 °C 18.4 °C 82 % 29 km/h (51 km/h) 0 mm0 mm 1013 hPa
13:06 21.6 °C 18 °C 80 % 29 km/h (49 km/h) 0 mm0 mm 1012.9 hPa
13:00 21.7 °C 17.9 °C 79 % 29 km/h (49 km/h) 0 mm0 mm 1012.8 hPa
12:54 21.9 °C 18.1 °C 79 % 29 km/h (51 km/h) 0 mm0 mm 1012.8 hPa
12:48 21.9 °C 18.3 °C 80 % 27 km/h (56 km/h) 0 mm0 mm 1012.9 hPa
12:42 21.7 °C 18.1 °C 80 % 26 km/h (56 km/h) 0 mm0 mm 1012.9 hPa
12:36 21.5 °C 17.9 °C 80 % 27 km/h (52 km/h) 0 mm0 mm 1013 hPa
12:30 21.6 °C 18 °C 80 % 28 km/h (52 km/h) 0 mm0 mm 1013 hPa
12:24 21.7 °C 17.9 °C 79 % 27 km/h (46 km/h) 0 mm0 mm 1013 hPa
12:18 21.7 °C 17.7 °C 78 % 28 km/h (53 km/h) 0 mm0 mm 1013.1 hPa
12:12 21.7 °C 17.7 °C 78 % 31 km/h (53 km/h) 0 mm0 mm 1013.1 hPa
12:06 21.7 °C 17.7 °C 78 % 29 km/h (51 km/h) 0 mm0 mm 1013 hPa
12:00 21.7 °C 17.9 °C 79 % 27 km/h (50 km/h) 0 mm0 mm 1013 hPa
11:54 21.8 °C 17.8 °C 78 % 28 km/h (58 km/h) 0 mm0 mm 1012.9 hPa
11:48 21.8 °C 17.8 °C 78 % 24 km/h (44 km/h) 0 mm0 mm 1013 hPa
11:42 21.6 °C 18 °C 80 % 27 km/h (48 km/h) 0 mm0 mm 1013 hPa
11:36 21.5 °C 17.9 °C 80 % 26 km/h (47 km/h) 0 mm0 mm 1013 hPa
11:30 21.5 °C 18.1 °C 81 % 28 km/h (47 km/h) 0 mm0 mm 1012.9 hPa
11:24 21.2 °C 18.2 °C 83 % 29 km/h (48 km/h) 0 mm0 mm 1013.1 hPa
11:18 21.4 °C 18.2 °C 82 % 28 km/h (45 km/h) 0 mm0 mm 1013.1 hPa
11:12 21.3 °C 18.1 °C 82 % 27 km/h (49 km/h) 0 mm0 mm 1013 hPa
11:06 21.3 °C 18.1 °C 82 % 28 km/h (50 km/h) 0 mm0 mm 1012.9 hPa
11:00 21.4 °C 18.2 °C 82 % 30 km/h (50 km/h) 0 mm0 mm 1012.9 hPa 8 Octas
10:54 21.5 °C 18.3 °C 82 % 31 km/h (54 km/h) 0 mm0 mm 1012.9 hPa
10:48 21.6 °C 18.2 °C 81 % 28 km/h (54 km/h) 0 mm0 mm 1012.8 hPa
10:42 21.6 °C 18.2 °C 81 % 26 km/h (46 km/h) 0 mm0 mm 1012.7 hPa
10:36 21.6 °C 18.4 °C 82 % 27 km/h (54 km/h) 0 mm0 mm 1012.6 hPa
10:30 21.6 °C 18 °C 80 % 30 km/h (54 km/h) 0 mm0 mm 1012.4 hPa
10:24 21.6 °C 18.4 °C 82 % 30 km/h (59 km/h) 0 mm0 mm 1012.4 hPa
10:18 21.7 °C 18.7 °C 83 % 29 km/h (53 km/h) 0 mm0 mm 1013 hPa
10:12 21.6 °C 18.6 °C 83 % 29 km/h (53 km/h) 0 mm0 mm 1012.6 hPa
10:06 21.6 °C 18.4 °C 82 % 28 km/h (48 km/h) 0 mm0 mm 1012.1 hPa
10:00 21.6 °C 18.6 °C 83 % 28 km/h (55 km/h) 0 mm0 mm 1012.1 hPa
09:54 21.3 °C 18.5 °C 84 % 29 km/h (55 km/h) 0 mm0 mm 1012.1 hPa
09:48 21.3 °C 18.5 °C 84 % 26 km/h (44 km/h) 0 mm0 mm 1012.2 hPa
09:42 21.4 °C 19 °C 86 % 27 km/h (51 km/h) 0 mm0 mm 1012.4 hPa
09:36 20.9 °C 18.7 °C 87 % 28 km/h (51 km/h) 0 mm0 mm 1012.4 hPa
09:30 20.7 °C 18.6 °C 88 % 28 km/h (52 km/h) 0 mm0 mm 1012.5 hPa
09:24 20.6 °C 18.5 °C 88 % 28 km/h (52 km/h) 0 mm0 mm 1012.7 hPa
09:18 20.7 °C 18.5 °C 87 % 28 km/h (46 km/h) 0 mm0 mm 1013.3 hPa
09:12 20.9 °C 18.7 °C 87 % 27 km/h (50 km/h) 0 mm0 mm 1013.2 hPa
09:06 21 °C 18.4 °C 85 % 27 km/h (50 km/h) 0 mm0 mm 1012.8 hPa
09:00 21.1 °C 18.3 °C 84 % 27 km/h (50 km/h) 0 mm0 mm 1012.8 hPa
08:54 21.2 °C 18.4 °C 84 % 28 km/h (50 km/h) 0 mm0 mm 1012.8 hPa
08:48 21.1 °C 18.3 °C 84 % 29 km/h (63 km/h) 0 mm0 mm 1012.7 hPa
08:42 21 °C 18.4 °C 85 % 32 km/h (53 km/h) 0 mm0 mm 1013.2 hPa
08:36 21.2 °C 18.4 °C 84 % 30 km/h (53 km/h) 0 mm0 mm 1012.7 hPa
08:30 21.1 °C 18.1 °C 83 % 26 km/h (44 km/h) 0 mm0 mm 1012.7 hPa
08:24 21.1 °C 18.1 °C 83 % 25 km/h (41 km/h) 0 mm0 mm 1012.6 hPa
08:18 21.1 °C 18.3 °C 84 % 24 km/h (41 km/h) 0 mm0 mm 1012.6 hPa
08:12 21.2 °C 18.4 °C 84 % 24 km/h (46 km/h) 0 mm0 mm 1012.5 hPa
08:06 21.1 °C 18.5 °C 85 % 25 km/h (46 km/h) 0 mm0 mm 1012.5 hPa
08:00 21 °C 18.4 °C 85 % 24 km/h (45 km/h) 0 mm0 mm 1012.6 hPa
07:54 20.9 °C 18.5 °C 86 % 22 km/h (39 km/h) 0 mm0 mm 1012.9 hPa
07:48 20.8 °C 18.4 °C 86 % 21 km/h (37 km/h) 0 mm0 mm 1012.8 hPa
07:42 20.8 °C 18.6 °C 87 % 21 km/h (39 km/h) 0 mm0 mm 1012.9 hPa
07:36 20.7 °C 18.6 °C 88 % 22 km/h (39 km/h) 0 mm0 mm 1013 hPa
07:30 20.6 °C 18.7 °C 89 % 23 km/h (38 km/h) 0 mm0 mm 1013.3 hPa
07:24 20.5 °C 18.6 °C 89 % 24 km/h (37 km/h) 0 mm0 mm 1012.9 hPa
07:18 20.5 °C 18.6 °C 89 % 24 km/h (37 km/h) 0 mm0 mm 1013 hPa
07:12 20.6 °C 18.5 °C 88 % 23 km/h (36 km/h) 0 mm0 mm 1013 hPa
07:06 20.7 °C 18.6 °C 88 % 22 km/h (37 km/h) 0 mm0 mm 1013.2 hPa
07:00 20.7 °C 18.8 °C 89 % 23 km/h (47 km/h) 0 mm0 mm 1013.3 hPa
06:54 20.6 °C 18.7 °C 89 % 22 km/h (47 km/h) 0 mm0 mm 1013.6 hPa
06:48 20.5 °C 18.8 °C 90 % 21 km/h (37 km/h) 0 mm0 mm 1013.6 hPa
06:42 20.5 °C 18.8 °C 90 % 22 km/h (37 km/h) 0 mm0 mm 1013.7 hPa
06:36 20.6 °C 18.7 °C 89 % 20 km/h (37 km/h) 0 mm0 mm 1013.8 hPa
06:30 20.7 °C 18.6 °C 88 % 23 km/h (40 km/h) 0 mm0 mm 1013.9 hPa
06:24 20.9 °C 18.3 °C 85 % 23 km/h (45 km/h) 0 mm0 mm 1013.9 hPa
06:18 21 °C 18.2 °C 84 % 25 km/h (45 km/h) 0 mm0 mm 1014 hPa
06:12 21 °C 18.2 °C 84 % 24 km/h (46 km/h) 0 mm0 mm 1014 hPa
06:06 20.9 °C 18.5 °C 86 % 23 km/h (49 km/h) 0 mm0 mm 1014.1 hPa
06:00 20.9 °C 18.5 °C 86 % 25 km/h (49 km/h) 0 mm0 mm 1014 hPa
05:54 20.9 °C 18.7 °C 87 % 24 km/h (46 km/h) 0 mm0 mm 1013.9 hPa
05:48 21 °C 18.9 °C 88 % 24 km/h (45 km/h) 0 mm0 mm 1014 hPa
05:42 21.1 °C 18.8 °C 87 % 24 km/h (47 km/h) 0 mm0 mm 1014 hPa
05:36 21 °C 18.8 °C 87 % 23 km/h (47 km/h) 0 mm0 mm 1014.1 hPa
05:30 21 °C 18.6 °C 86 % 23 km/h (37 km/h) 0 mm0 mm 1014.2 hPa
05:24 21 °C 18.8 °C 87 % 22 km/h (42 km/h) 0 mm0 mm 1014.2 hPa
05:18 21 °C 18.8 °C 87 % 23 km/h (42 km/h) 0 mm0 mm 1014.2 hPa
05:12 20.9 °C 18.7 °C 87 % 22 km/h (41 km/h) 0 mm0 mm 1014.3 hPa
05:06 20.9 °C 18.7 °C 87 % 23 km/h (39 km/h) 0 mm0 mm 1014.4 hPa
05:00 20.9 °C 18.7 °C 87 % 22 km/h (39 km/h) 0 mm0 mm 1014.5 hPa
04:54 20.9 °C 18.7 °C 87 % 22 km/h (43 km/h) 0 mm0 mm 1014.6 hPa
04:48 20.8 °C 18.6 °C 87 % 23 km/h (43 km/h) 0 mm0 mm 1014.7 hPa
04:42 20.6 °C 18.4 °C 87 % 24 km/h (41 km/h) 0 mm0 mm 1014.6 hPa
04:36 20.7 °C 18.5 °C 87 % 22 km/h (37 km/h) 0 mm0 mm 1014.6 hPa
04:30 20.7 °C 18.5 °C 87 % 20 km/h (35 km/h) 0 mm0 mm 1014.7 hPa
04:24 20.8 °C 18.4 °C 86 % 20 km/h (36 km/h) 0 mm0 mm 1014.8 hPa
04:18 20.8 °C 18.4 °C 86 % 22 km/h (40 km/h) 0 mm0 mm 1014.9 hPa
04:12 20.8 °C 18.4 °C 86 % 21 km/h (40 km/h) 0 mm0 mm 1014.9 hPa
04:06 20.7 °C 18.3 °C 86 % 19 km/h (36 km/h) 0 mm0 mm 1015 hPa
04:00 20.7 °C 18.3 °C 86 % 18 km/h (33 km/h) 0 mm0 mm 1015.1 hPa
03:54 20.7 °C 18.3 °C 86 % 17 km/h (30 km/h) 0 mm0 mm 1015.2 hPa
03:48 20.7 °C 18.3 °C 86 % 20 km/h (38 km/h) 0 mm0 mm 1015.2 hPa
03:42 20.7 °C 18.3 °C 86 % 18 km/h (38 km/h) 0 mm0 mm 1015.3 hPa
03:36 20.6 °C 18.2 °C 86 % 18 km/h (35 km/h) 0 mm0 mm 1015.4 hPa
03:30 20.6 °C 18.4 °C 87 % 21 km/h (40 km/h) 0 mm0 mm 1015.4 hPa
03:24 20.5 °C 18.1 °C 86 % 22 km/h (40 km/h) 0 mm0 mm 1015.4 hPa
03:18 20.5 °C 18.3 °C 87 % 22 km/h (37 km/h) 0 mm0 mm 1015.5 hPa
03:12 20.4 °C 18.2 °C 87 % 24 km/h (43 km/h) 0 mm0 mm 1015.5 hPa
03:06 20.4 °C 18 °C 86 % 24 km/h (39 km/h) 0 mm0 mm 1015.5 hPa
03:00 20.6 °C 18 °C 85 % 23 km/h (41 km/h) 0 mm0 mm 1015.5 hPa
02:54 20.7 °C 18.3 °C 86 % 23 km/h (41 km/h) 0 mm0 mm 1015.6 hPa
02:48 20.7 °C 18.3 °C 86 % 23 km/h (38 km/h) 0 mm0 mm 1015.7 hPa
02:42 20.6 °C 18 °C 85 % 24 km/h (42 km/h) 0 mm0 mm 1015.7 hPa
02:36 20.7 °C 18.1 °C 85 % 24 km/h (42 km/h) 0 mm0 mm 1015.8 hPa
02:30 20.7 °C 18.1 °C 85 % 24 km/h (46 km/h) 0 mm0 mm 1015.9 hPa
02:24 20.6 °C 17.8 °C 84 % 24 km/h (41 km/h) 0 mm0 mm 1016 hPa
02:18 20.7 °C 18.1 °C 85 % 24 km/h (44 km/h) 0 mm0 mm 1016.1 hPa
02:12 20.7 °C 18.1 °C 85 % 22 km/h (44 km/h) 0 mm0 mm 1016.2 hPa
02:06 20.8 °C 18.2 °C 85 % 24 km/h (47 km/h) 0 mm0 mm 1016.2 hPa
02:00 20.6 °C 18 °C 85 % 24 km/h (49 km/h) 0 mm0 mm 1016.2 hPa
01:54 20.7 °C 18.3 °C 86 % 22 km/h (42 km/h) 0 mm0 mm 1016.3 hPa
01:48 20.7 °C 18.1 °C 85 % 22 km/h (41 km/h) 0 mm0 mm 1016.3 hPa
01:42 20.6 °C 18.2 °C 86 % 22 km/h (41 km/h) 0 mm0 mm 1016.2 hPa
01:36 20.7 °C 18.5 °C 87 % 22 km/h (37 km/h) 0 mm0 mm 1016.4 hPa
01:30 20.7 °C 18.5 °C 87 % 21 km/h (42 km/h) 0 mm0 mm 1016.4 hPa
01:24 20.7 °C 18.3 °C 86 % 22 km/h (42 km/h) 0 mm0 mm 1016.4 hPa
01:18 20.8 °C 18.6 °C 87 % 22 km/h (41 km/h) 0 mm0 mm 1016.5 hPa
01:12 20.8 °C 18.6 °C 87 % 22 km/h (41 km/h) 0 mm0 mm 1016.6 hPa
01:06 20.8 °C 18.6 °C 87 % 22 km/h (39 km/h) 0 mm0 mm 1016.7 hPa
01:00 20.8 °C 18.7 °C 88 % 23 km/h (41 km/h) 0 mm0 mm 1016.7 hPa
00:54 20.7 °C 18.8 °C 89 % 23 km/h (37 km/h) 0 mm0 mm 1016.6 hPa
00:48 20.8 °C 18.7 °C 88 % 24 km/h (41 km/h) 0 mm0 mm 1016.7 hPa
00:42 20.8 °C 18.9 °C 89 % 24 km/h (41 km/h) 0 mm0 mm 1016.8 hPa
00:36 20.8 °C 18.9 °C 89 % 22 km/h (39 km/h) 0 mm0 mm 1016.9 hPa
00:30 20.7 °C 18.8 °C 89 % 19 km/h (32 km/h) 0 mm0 mm 1016.9 hPa
00:24 20.7 °C 18.8 °C 89 % 20 km/h (37 km/h) 0 mm0 mm 1017 hPa
00:18 20.8 °C 19.1 °C 90 % 25 km/h (39 km/h) 0 mm0 mm 1017.2 hPa
00:12 20.9 °C 19 °C 89 % 27 km/h (48 km/h) 0 mm0 mm 1017.3 hPa
00:06 20.8 °C 18.7 °C 88 % 30 km/h (49 km/h) 0 mm0 mm 1017.3 hPa
00:00 21 °C 18.9 °C 88 % 27 km/h (49 km/h) 0 mm0 mm 1017.2 hPa

Données via Météo-France

Relevés météo à Dunkerque

Cette page rassemble les observations de la station de Dunkerque : température, humidité, vent, précipitations et pression atmosphérique. Les graphiques facilitent le suivi de la journée, tandis que le tableau donne accès aux mesures horaires et infra-horaires disponibles.

Pour replacer ces mesures dans leur contexte, consultez la climatologie de Dunkerque ainsi que ses normales et records. Retrouvez aussi la carte des observations météo en temps réel.